DAAT/TMR METAR and TAF weather

Enter ICAO airport designator
Station Type Date Time Source
DAAT METAR 2023/02/05 13:00 UTC NOAA

DAAT 051300Z 17004KT 120V250 CAVOK 24/// Q1021


Station Type Date Time Source
DAAT Decoded METAR 2023/02/05 13:00 UTC NOAA

Tamanrasset / Aguenna, Algeria (DAAT) 22-49N 005-28E
Feb 05, 2023 - 08:00 AM EST / 2023.02.05 1300 UTC
Wind: from the S (170 degrees) at 5 MPH (4 KT) (direction variable):0
Visibility: greater than 7 mile(s):0
Temperature: 75 F (24 C)
Pressure (altimeter): 30.15 in. Hg (1021 hPa)
ob: DAAT 051300Z 17004KT 120V250 CAVOK 24/// Q1021
cycle: 13

Station Type Date Time Source
DAAT TAF 2023/02/05 12:33 UTC NOAA

TAF DAAT 051100Z 0512/0612 14008KT CAVOK

Example: see airport list